Map

Track Data

SID SEASON NUMBER BASIN SUBBASIN NAME ISO_TIME NATURE LAT LON WMO_WIND WMO_PRES WMO_AGENCY TRACK_TYPE DIST2LAND LANDFALL IFLAG USA_AGENCY USA_ATCF_ID USA_LAT USA_LON USA_RECORD USA_STATUS USA_WIND USA_PRES USA_SSHS USA_R34_NE USA_R34_SE USA_R34_SW USA_R34_NW USA_R50_NE USA_R50_SE USA_R50_SW USA_R50_NW USA_R64_NE USA_R64_SE USA_R64_SW USA_R64_NW USA_POCI USA_ROCI USA_RMW USA_EYE TOKYO_LAT TOKYO_LON TOKYO_GRADE TOKYO_WIND TOKYO_PRES TOKYO_R50_DIR TOKYO_R50_LONG TOKYO_R50_SHORT TOKYO_R30_DIR TOKYO_R30_LONG TOKYO_R30_SHORT TOKYO_LAND CMA_LAT CMA_LON CMA_CAT CMA_WIND CMA_PRES HKO_LAT HKO_LON HKO_CAT HKO_WIND HKO_PRES NEWDELHI_LAT NEWDELHI_LON NEWDELHI_GRADE NEWDELHI_WIND NEWDELHI_PRES NEWDELHI_CI NEWDELHI_DP NEWDELHI_POCI REUNION_LAT REUNION_LON REUNION_TYPE REUNION_WIND REUNION_PRES REUNION_TNUM REUNION_CI REUNION_RMW REUNION_R34_NE REUNION_R34_SE REUNION_R34_SW REUNION_R34_NW REUNION_R50_NE REUNION_R50_SE REUNION_R50_SW REUNION_R50_NW REUNION_R64_NE REUNION_R64_SE REUNION_R64_SW REUNION_R64_NW BOM_LAT BOM_LON BOM_TYPE BOM_WIND BOM_PRES BOM_TNUM BOM_CI BOM_RMW BOM_R34_NE BOM_R34_SE BOM_R34_SW BOM_R34_NW BOM_R50_NE BOM_R50_SE BOM_R50_SW BOM_R50_NW BOM_R64_NE BOM_R64_SE BOM_R64_SW BOM_R64_NW BOM_ROCI BOM_POCI BOM_EYE BOM_POS_METHOD BOM_PRES_METHOD NADI_LAT NADI_LON NADI_CAT NADI_WIND NADI_PRES WELLINGTON_LAT WELLINGTON_LON WELLINGTON_WIND WELLINGTON_PRES DS824_LAT DS824_LON DS824_STAGE DS824_WIND DS824_PRES TD9636_LAT TD9636_LON TD9636_STAGE TD9636_WIND TD9636_PRES TD9635_LAT TD9635_LON TD9635_WIND TD9635_PRES TD9635_ROCI NEUMANN_LAT NEUMANN_LON NEUMANN_CLASS NEUMANN_WIND NEUMANN_PRES MLC_LAT MLC_LON MLC_CLASS MLC_WIND MLC_PRES USA_GUST BOM_GUST BOM_GUST_PER REUNION_GUST REUNION_GUST_PER USA_SEAHGT USA_SEARAD_NE USA_SEARAD_SE USA_SEARAD_SW USA_SEARAD_NW STORM_SPEED STORM_DIR
1997048S12103 1997 14 SI WA NOT_NAMED 1997-02-16 12:00:00 TS -12.1000 103.300 main 626 593 O___________O_ jtwc_sh SH271997 -12.1000 103.300 20 -1 -12.1000 103.300 TC 20 18 96
1997048S12103 1997 14 SI WA NOT_NAMED 1997-02-16 15:00:00 TS -12.1905 104.200 main 589 567 P___________P_ SH271997 -12.1905 104.200 22 -1 -12.1905 104.200 TC 22 18 96
1997048S12103 1997 14 SI WA NOT_NAMED 1997-02-16 18:00:00 TS -12.3000 105.100 main 567 559 O___________O_ jtwc_sh SH271997 -12.3000 105.100 25 -1 -12.3000 105.100 TC 25 18 99
1997048S12103 1997 14 SI WA NOT_NAMED 1997-02-16 21:00:00 TS -12.4549 105.988 main 572 559 P___________P_ SH271997 -12.4549 105.988 25 -1 -12.4549 105.988 TC 25 17 104
1997048S12103 1997 14 SI WA NOT_NAMED 1997-02-17 00:00:00 TS -12.7000 106.800 main 570 568 O___________O_ jtwc_sh SH271997 -12.7000 106.800 25 -1 -12.7000 106.800 TC 25 16 113
1997048S12103 1997 14 SI WA NOT_NAMED 1997-02-17 03:00:00 TS -13.0697 107.502 main 601 600 P___________P_ SH271997 -13.0697 107.502 25 -1 -13.0697 107.502 TC 25 15 122
1997048S12103 1997 14 SI WA NOT_NAMED 1997-02-17 06:00:00 TS -13.5000 108.100 main 639 638 O___________O_ jtwc_sh SH271997 -13.5000 108.100 25 -1 -13.5000 108.100 TC 25 14 128
1997048S12103 1997 14 SI WA NOT_NAMED 1997-02-17 09:00:00 TS -13.9147 108.615 main 678 678 P___________P_ SH271997 -13.9147 108.615 25 -1 -13.9147 108.615 TC 25 13 129
1997048S12103 1997 14 SI WA NOT_NAMED 1997-02-17 12:00:00 TS -14.3000 109.100 main 705 702 O___________O_ jtwc_sh SH271997 -14.3000 109.100 25 -1 -14.3000 109.100 TC 25 12 126
1997048S12103 1997 14 SI WA NOT_NAMED 1997-02-17 15:00:00 TS -14.6299 109.643 main 726 724 P___________P_ SH271997 -14.6299 109.643 25 -1 -14.6299 109.643 TC 25 12 119
1997048S12103 1997 14 SI WA NOT_NAMED 1997-02-17 18:00:00 TS -14.9000 110.200 main 746 743 O___________O_ jtwc_sh SH271997 -14.9000 110.200 25 -1 -14.9000 110.200 TC 25 12 114
1997048S12103 1997 14 SI WA NOT_NAMED 1997-02-17 21:00:00 TS -15.1225 110.765 main 756 756 P___________P_ SH271997 -15.1225 110.765 25 -1 -15.1225 110.765 TC 25 11 111
1997048S12103 1997 14 SI WA NOT_NAMED 1997-02-18 00:00:00 TS -15.3000 111.300 main 773 752 O___________O_ jtwc_sh SH271997 -15.3000 111.300 25 -1 -15.3000 111.300 TC 25 10 109
1997048S12103 1997 14 SI WA NOT_NAMED 1997-02-18 03:00:00 TS -15.4649 111.780 main 752 727 P___________P_ SH271997 -15.4649 111.780 25 -1 -15.4649 111.780 TC 25 9 109
1997048S12103 1997 14 SI WA NOT_NAMED 1997-02-18 06:00:00 TS -15.6000 112.200 main 727 694 O___________O_ jtwc_sh SH271997 -15.6000 112.200 25 -1 -15.6000 112.200 TC 25 8 107
1997048S12103 1997 14 SI WA NOT_NAMED 1997-02-18 09:00:00 TS -15.7074 112.580 main 694 668 P___________P_ SH271997 -15.7074 112.580 25 -1 -15.7074 112.580 TC 25 7 107
1997048S12103 1997 14 SI WA NOT_NAMED 1997-02-18 12:00:00 TS -15.8000 112.900 main 668 642 O___________O_ jtwc_sh SH271997 -15.8000 112.900 25 -1 -15.8000 112.900 TC 25 6 108
1997048S12103 1997 14 SI WA NOT_NAMED 1997-02-18 15:00:00 TS -15.9000 113.180 main 642 621 P___________P_ SH271997 -15.9000 113.180 25 -1 -15.9000 113.180 TC 25 5 113
1997048S12103 1997 14 SI WA NOT_NAMED 1997-02-18 18:00:00 TS -16.0000 113.400 main 621 600 O___________O_ jtwc_sh SH271997 -16.0000 113.400 25 -1 -16.0000 113.400 TC 25 4 117
1997048S12103 1997 14 SI WA NOT_NAMED 1997-02-18 21:00:00 TS -16.0925 113.580 main 600 585 P___________P_ SH271997 -16.0925 113.580 27 -1 -16.0925 113.580 TC 27 4 125
1997048S12103 1997 14 SI WA NOT_NAMED 1997-02-19 00:00:00 TS -16.2000 113.700 main 585 570 O___________O_ jtwc_sh SH271997 -16.2000 113.700 30 -1 -16.2000 113.700 TC 30 3 145
1997048S12103 1997 14 SI WA NOT_NAMED 1997-02-19 03:00:00 TS -16.3425 113.758 main 570 551 P___________P_ SH271997 -16.3425 113.758 32 -1 -16.3425 113.758 TC 32 3 163
1997048S12103 1997 14 SI WA NOT_NAMED 1997-02-19 06:00:00 TS -16.5000 113.800 main 551 536 O___________O_ jtwc_sh SH271997 -16.5000 113.800 35 0 -16.5000 113.800 TC 35 3 160
1997048S12103 1997 14 SI WA NOT_NAMED 1997-02-19 09:00:00 TS -16.6500 113.878 main 536 511 P___________P_ SH271997 -16.6500 113.878 35 0 -16.6500 113.878 TC 35 4 148
1997048S12103 1997 14 SI WA NOT_NAMED 1997-02-19 12:00:00 TS -16.8000 114.000 main 511 490 O___________O_ jtwc_sh SH271997 -16.8000 114.000 35 0 -16.8000 114.000 TC 35 4 136
1997048S12103 1997 14 SI WA NOT_NAMED 1997-02-19 15:00:00 TS -16.9500 114.185 main 481 460 P___________P_ SH271997 -16.9500 114.185 37 0 -16.9500 114.185 TC 37 5 128
1997048S12103 1997 14 SI WA NOT_NAMED 1997-02-19 18:00:00 TS -17.1000 114.400 main 460 439 O___________O_ jtwc_sh SH271997 -17.1000 114.400 40 0 -17.1000 114.400 TC 40 5 127
1997048S12103 1997 14 SI WA NOT_NAMED 1997-02-19 21:00:00 TS -17.2500 114.600 main 439 409 P___________P_ SH271997 -17.2500 114.600 42 0 -17.2500 114.600 TC 42 5 128
1997048S12103 1997 14 SI WA NOT_NAMED 1997-02-20 00:00:00 TS -17.4000 114.800 main 409 390 O___________O_ jtwc_sh SH271997 -17.4000 114.800 45 0 -17.4000 114.800 TC 45 5 128
1997048S12103 1997 14 SI WA NOT_NAMED 1997-02-20 03:00:00 TS -17.5500 115.000 main 390 360 P___________P_ SH271997 -17.5500 115.000 45 0 -17.5500 115.000 TC 45 5 128
1997048S12103 1997 14 SI WA NOT_NAMED 1997-02-20 06:00:00 TS -17.7000 115.200 main 360 341 O___________O_ jtwc_sh SH271997 -17.7000 115.200 45 0 -17.7000 115.200 TC 45 5 127
1997048S12103 1997 14 SI WA NOT_NAMED 1997-02-20 09:00:00 TS -17.8500 115.415 main 331 312 P___________P_ SH271997 -17.8500 115.415 45 0 -17.8500 115.415 TC 45 5 128
1997048S12103 1997 14 SI WA NOT_NAMED 1997-02-20 12:00:00 TS -18.0000 115.600 main 312 298 O___________O_ jtwc_sh SH271997 -18.0000 115.600 45 0 -18.0000 115.600 TC 45 4 136
1997048S12103 1997 14 SI WA NOT_NAMED 1997-02-20 15:00:00 TS -18.1575 115.723 main 288 274 P___________P_ SH271997 -18.1575 115.723 45 0 -18.1575 115.723 TC 45 4 148
1997048S12103 1997 14 SI WA NOT_NAMED 1997-02-20 18:00:00 TS -18.3000 115.800 main 274 259 O___________O_ jtwc_sh SH271997 -18.3000 115.800 45 0 -18.3000 115.800 TC 45 3 150
1997048S12103 1997 14 SI WA NOT_NAMED 1997-02-20 21:00:00 TS -18.4000 115.865 main 259 249 P___________P_ SH271997 -18.4000 115.865 45 0 -18.4000 115.865 TC 45 2 153
1997048S12103 1997 14 SI WA NOT_NAMED 1997-02-21 00:00:00 TS -18.5000 115.900 main 249 238 O___________O_ jtwc_sh SH271997 -18.5000 115.900 45 0 -18.5000 115.900 TC 45 3 167
1997048S12103 1997 14 SI WA NOT_NAMED 1997-02-21 03:00:00 TS -18.6500 115.922 main 238 218 P___________P_ SH271997 -18.6500 115.922 45 0 -18.6500 115.922 TC 45 3 0
1997048S12103 1997 14 SI WA NOT_NAMED 1997-02-21 06:00:00 TS -18.8000 115.900 main 218 207 O___________O_ jtwc_sh SH271997 -18.8000 115.900 45 0 -18.8000 115.900 TC 45 3 198
1997048S12103 1997 14 SI WA NOT_NAMED 1997-02-21 09:00:00 TS -18.9075 115.830 main 212 202 P___________P_ SH271997 -18.9075 115.830 45 0 -18.9075 115.830 TC 45 3 224
1997048S12103 1997 14 SI WA NOT_NAMED 1997-02-21 12:00:00 TS -19.0000 115.700 main 207 203 O___________O_ jtwc_sh SH271997 -19.0000 115.700 45 0 -19.0000 115.700 TC 45 4 236
1997048S12103 1997 14 SI WA NOT_NAMED 1997-02-21 15:00:00 TS -19.1075 115.515 main 209 207 P___________P_ SH271997 -19.1075 115.515 45 0 -19.1075 115.515 TC 45 4 242
1997048S12103 1997 14 SI WA NOT_NAMED 1997-02-21 18:00:00 TS -19.2000 115.300 main 212 212 O___________O_ jtwc_sh SH271997 -19.2000 115.300 45 0 -19.2000 115.300 TC 45 4 249
1997048S12103 1997 14 SI WA NOT_NAMED 1997-02-21 21:00:00 TS -19.2575 115.107 main 212 212 P___________P_ SH271997 -19.2575 115.107 45 0 -19.2575 115.107 TC 45 4 255
1997048S12103 1997 14 SI WA NOT_NAMED 1997-02-22 00:00:00 TS -19.3000 114.900 main 224 224 O___________O_ jtwc_sh SH271997 -19.3000 114.900 45 0 -19.3000 114.900 TC 45 4 258
1997048S12103 1997 14 SI WA NOT_NAMED 1997-02-22 03:00:00 TS -19.3500 114.658 main 237 233 P___________P_ SH271997 -19.3500 114.657 45 0 -19.3500 114.657 TC 45 5 258
1997048S12103 1997 14 SI WA NOT_NAMED 1997-02-22 06:00:00 TS -19.4000 114.400 main 246 246 O___________O_ jtwc_sh SH271997 -19.4000 114.400 45 0 -19.4000 114.400 TC 45 5 259
1997048S12103 1997 14 SI WA NOT_NAMED 1997-02-22 09:00:00 TS -19.4425 114.150 main 267 259 P___________P_ SH271997 -19.4425 114.150 45 0 -19.4425 114.150 TC 45 5 258
1997048S12103 1997 14 SI WA NOT_NAMED 1997-02-22 12:00:00 TS -19.5000 113.900 main 267 259 O___________O_ jtwc_sh SH271997 -19.5000 113.900 45 0 -19.5000 113.900 TC 45 5 253
1997048S12103 1997 14 SI WA NOT_NAMED 1997-02-22 15:00:00 TS -19.5850 113.642 main 260 251 P___________P_ SH271997 -19.5850 113.642 45 0 -19.5850 113.642 TC 45 5 247
1997048S12103 1997 14 SI WA NOT_NAMED 1997-02-22 18:00:00 TS -19.7000 113.400 main 253 245 O___________O_ jtwc_sh SH271997 -19.7000 113.400 45 0 -19.7000 113.400 TC 45 5 239
1997048S12103 1997 14 SI WA NOT_NAMED 1997-02-22 21:00:00 TS -19.8349 113.200 main 249 232 P___________P_ SH271997 -19.8349 113.200 45 0 -19.8349 113.200 TC 45 5 231
1997048S12103 1997 14 SI WA NOT_NAMED 1997-02-23 00:00:00 TS -20.0000 113.000 main 236 227 O___________O_ jtwc_sh SH271997 -20.0000 113.000 45 0 -20.0000 113.000 TC 45 5 230
1997048S12103 1997 14 SI WA NOT_NAMED 1997-02-23 03:00:00 TS -20.1850 112.757 main 227 221 P___________P_ SH271997 -20.1850 112.757 45 0 -20.1850 112.757 TC 45 6 230
1997048S12103 1997 14 SI WA NOT_NAMED 1997-02-23 06:00:00 TS -20.4000 112.500 main 228 228 O___________O_ jtwc_sh SH271997 -20.4000 112.500 45 0 -20.4000 112.500 TC 45 7 227
1997048S12103 1997 14 SI WA NOT_NAMED 1997-02-23 09:00:00 TS -20.6275 112.242 main 236 229 P___________P_ SH271997 -20.6275 112.242 45 0 -20.6275 112.242 TC 45 7 223
1997048S12103 1997 14 SI WA NOT_NAMED 1997-02-23 12:00:00 TS -20.9000 112.000 main 235 230 O___________O_ jtwc_sh SH271997 -20.9000 112.000 45 0 -20.9000 112.000 TC 45 7 214
1997048S12103 1997 14 SI WA NOT_NAMED 1997-02-23 15:00:00 TS -21.2425 111.792 main 239 231 P___________P_ SH271997 -21.2425 111.792 45 0 -21.2425 111.792 TC 45 8 208
1997048S12103 1997 14 SI WA NOT_NAMED 1997-02-23 18:00:00 TS -21.6000 111.600 main 234 229 O___________O_ jtwc_sh SH271997 -21.6000 111.600 45 0 -21.6000 111.600 TC 45 8 208
1997048S12103 1997 14 SI WA NOT_NAMED 1997-02-23 21:00:00 TS -21.9224 111.407 main 239 235 P___________P_ SH271997 -21.9224 111.407 45 0 -21.9224 111.407 TC 45 7 212
1997048S12103 1997 14 SI WA NOT_NAMED 1997-02-24 00:00:00 TS -22.2000 111.200 main 250 248 O___________O_ jtwc_sh SH271997 -22.2000 111.200 45 0 -22.2000 111.200 TC 45 6 219
1997048S12103 1997 14 SI WA NOT_NAMED 1997-02-24 03:00:00 TS -22.4224 110.972 main 267 267 P___________P_ SH271997 -22.4224 110.972 42 0 -22.4224 110.972 TC 42 6 229
1997048S12103 1997 14 SI WA NOT_NAMED 1997-02-24 06:00:00 TS -22.6000 110.700 main 297 297 O___________O_ jtwc_sh SH271997 -22.6000 110.700 40 0 -22.6000 110.700 TC 40 7 238
1997048S12103 1997 14 SI WA NOT_NAMED 1997-02-24 09:00:00 TS -22.7650 110.372 main 328 328 P___________P_ SH271997 -22.7650 110.372 37 0 -22.7650 110.372 TC 37 7 245
1997048S12103 1997 14 SI WA NOT_NAMED 1997-02-24 12:00:00 TS -22.9000 110.000 main 370 370 O___________O_ jtwc_sh SH271997 -22.9000 110.000 35 0 -22.9000 110.000 TC 35 7 250
1997048S12103 1997 14 SI WA NOT_NAMED 1997-02-24 15:00:00 TS -23.0224 109.615 main 410 410 P___________P_ SH271997 -23.0224 109.615 32 -1 -23.0224 109.615 TC 32 8 255
1997048S12103 1997 14 SI WA NOT_NAMED 1997-02-24 18:00:00 TS -23.1000 109.200 main 447 447 O___________O_ jtwc_sh SH271997 -23.1000 109.200 30 -1 -23.1000 109.200 TC 30 8 263
1997048S12103 1997 14 SI WA NOT_NAMED 1997-02-24 21:00:00 TS -23.1150 108.750 main 497 497 P___________P_ SH271997 -23.1150 108.750 27 -1 -23.1150 108.750 TC 27 8 270
1997048S12103 1997 14 SI WA NOT_NAMED 1997-02-25 00:00:00 TS -23.1000 108.300 main 537 537 O___________O_ jtwc_sh SH271997 -23.1000 108.300 25 -1 -23.1000 108.300 TC 25 8 270
1997048S12103 1997 14 SI WA NOT_NAMED 1997-02-25 03:00:00 TS -23.1149 107.885 main 577 577 P___________P_ SH271997 -23.1149 107.885 22 -1 -23.1149 107.885 TC 22 7 270
1997048S12103 1997 14 SI WA NOT_NAMED 1997-02-25 06:00:00 TS -23.1000 107.500 main 617 617 O___________O_ jtwc_sh SH271997 -23.1000 107.500 20 -1 -23.1000 107.500 TC 20 7 278
1997048S12103 1997 14 SI WA NOT_NAMED 1997-02-25 09:00:00 TS -23.0224 107.135 main 659 659 P___________P_ SH271997 -23.0224 107.135 20 -1 -23.0224 107.135 TC 20 7 287
1997048S12103 1997 14 SI WA NOT_NAMED 1997-02-25 12:00:00 TS -22.9000 106.800 main 692 692 O___________O_ jtwc_sh SH271997 -22.9000 106.800 20 -1 -22.9000 106.800 TC 20 7 294
1997048S12103 1997 14 SI WA NOT_NAMED 1997-02-25 15:00:00 TS -22.7574 106.485 main 724 724 P___________P_ SH271997 -22.7574 106.485 20 -1 -22.7574 106.485 TC 20 6 298
1997048S12103 1997 14 SI WA NOT_NAMED 1997-02-25 18:00:00 TS -22.6000 106.200 main 759 759 O___________O_ jtwc_sh SH271997 -22.6000 106.200 20 -1 -22.6000 106.200 TC 20 6 301
1997048S12103 1997 14 SI WA NOT_NAMED 1997-02-25 21:00:00 TS -22.4574 105.943 main 790 790 P___________P_ SH271997 -22.4574 105.943 17 -1 -22.4574 105.943 TC 17 6 303
1997048S12103 1997 14 SI WA NOT_NAMED 1997-02-26 00:00:00 TS -22.3000 105.700 main 812 812 O___________O_ jtwc_sh SH271997 -22.3000 105.700 15 -1 -22.3000 105.700 TC 15 6 307
1997048S12103 1997 14 SI WA NOT_NAMED 1997-02-26 03:00:00 TS -22.1101 105.452 main 834 834 P___________P_ SH271997 -22.1101 105.452 15 -1 -22.1101 105.452 TC 15 6 311
1997048S12103 1997 14 SI WA NOT_NAMED 1997-02-26 06:00:00 TS -21.9000 105.200 main 867 O___________O_ jtwc_sh SH271997 -21.9000 105.200 15 -1 -21.9000 105.200 TC 15 6 312

About IBTrACS Database

This database is a web-friendly format of International Best Track Archive for Climate Stewardship (IBTrACS), a global best track data archive curated by NOAA dating back to 1842.

Updated: 2021-10-27